sensor_id;sensor_type;location;lat;lon;timestamp;temperature;humidity
57088;DHT22;42965;52.846;6.614;2022-12-26T00:01:52;8.80;99.90
57088;DHT22;42965;52.846;6.614;2022-12-26T00:04:20;8.80;99.90
57088;DHT22;42965;52.846;6.614;2022-12-26T00:06:46;8.90;99.90
57088;DHT22;42965;52.846;6.614;2022-12-26T00:09:13;8.80;99.90
57088;DHT22;42965;52.846;6.614;2022-12-26T00:11:40;8.90;99.90
57088;DHT22;42965;52.846;6.614;2022-12-26T00:14:09;8.80;99.90
57088;DHT22;42965;52.846;6.614;2022-12-26T00:16:36;8.80;99.90
57088;DHT22;42965;52.846;6.614;2022-12-26T00:19:05;8.80;99.90
57088;DHT22;42965;52.846;6.614;2022-12-26T00:21:31;8.80;99.90
57088;DHT22;42965;52.846;6.614;2022-12-26T00:23:58;8.80;99.90
57088;DHT22;42965;52.846;6.614;2022-12-26T00:26:27;8.80;99.90
57088;DHT22;42965;52.846;6.614;2022-12-26T00:28:55;8.80;99.90
57088;DHT22;42965;52.846;6.614;2022-12-26T00:31:24;8.80;99.90
57088;DHT22;42965;52.846;6.614;2022-12-26T00:33:51;8.80;99.90
57088;DHT22;42965;52.846;6.614;2022-12-26T00:36:21;8.80;99.90
57088;DHT22;42965;52.846;6.614;2022-12-26T00:38:50;8.80;99.90
57088;DHT22;42965;52.846;6.614;2022-12-26T00:41:18;8.70;99.90
57088;DHT22;42965;52.846;6.614;2022-12-26T00:43:45;8.80;99.90
57088;DHT22;42965;52.846;6.614;2022-12-26T00:46:12;8.80;99.90
57088;DHT22;42965;52.846;6.614;2022-12-26T00:48:41;8.80;99.90
57088;DHT22;42965;52.846;6.614;2022-12-26T00:51:08;8.80;99.90
57088;DHT22;42965;52.846;6.614;2022-12-26T00:53:35;8.80;99.90
57088;DHT22;42965;52.846;6.614;2022-12-26T00:56:03;8.80;99.90
57088;DHT22;42965;52.846;6.614;2022-12-26T00:58:30;8.80;99.90
57088;DHT22;42965;52.846;6.614;2022-12-26T01:01:14;8.80;99.90
57088;DHT22;42965;52.846;6.614;2022-12-26T01:03:42;8.80;99.90
57088;DHT22;42965;52.846;6.614;2022-12-26T01:06:08;8.80;99.90
57088;DHT22;42965;52.846;6.614;2022-12-26T01:08:40;8.80;99.90
57088;DHT22;42965;52.846;6.614;2022-12-26T01:11:09;8.80;99.90
57088;DHT22;42965;52.846;6.614;2022-12-26T01:13:36;8.90;99.90
57088;DHT22;42965;52.846;6.614;2022-12-26T01:16:04;8.80;99.90
57088;DHT22;42965;52.846;6.614;2022-12-26T01:18:33;8.90;99.90
57088;DHT22;42965;52.846;6.614;2022-12-26T01:21:03;8.90;99.90
57088;DHT22;42965;52.846;6.614;2022-12-26T01:23:30;8.90;99.90
57088;DHT22;42965;52.846;6.614;2022-12-26T01:25:57;8.90;99.90
57088;DHT22;42965;52.846;6.614;2022-12-26T01:28:26;8.90;99.90
57088;DHT22;42965;52.846;6.614;2022-12-26T01:31:00;8.90;99.90
57088;DHT22;42965;52.846;6.614;2022-12-26T01:33:30;8.90;99.90
57088;DHT22;42965;52.846;6.614;2022-12-26T01:36:00;8.90;99.90
57088;DHT22;42965;52.846;6.614;2022-12-26T01:38:26;9.00;99.90
57088;DHT22;42965;52.846;6.614;2022-12-26T01:40:53;8.90;99.90
57088;DHT22;42965;52.846;6.614;2022-12-26T01:43:59;8.90;99.90
57088;DHT22;42965;52.846;6.614;2022-12-26T01:46:43;8.90;99.90
57088;DHT22;42965;52.846;6.614;2022-12-26T01:49:14;9.00;99.90
57088;DHT22;42965;52.846;6.614;2022-12-26T01:51:45;9.00;99.90
57088;DHT22;42965;52.846;6.614;2022-12-26T01:54:14;9.00;99.90
57088;DHT22;42965;52.846;6.614;2022-12-26T01:56:42;9.00;99.90
57088;DHT22;42965;52.846;6.614;2022-12-26T01:59:22;9.00;99.90
57088;DHT22;42965;52.846;6.614;2022-12-26T02:01:51;9.00;99.90
57088;DHT22;42965;52.846;6.614;2022-12-26T02:04:30;9.10;99.90
57088;DHT22;42965;52.846;6.614;2022-12-26T02:07:18;9.10;99.90
57088;DHT22;42965;52.846;6.614;2022-12-26T02:09:44;9.10;99.90
57088;DHT22;42965;52.846;6.614;2022-12-26T02:12:20;9.10;99.90
57088;DHT22;42965;52.846;6.614;2022-12-26T02:14:49;9.10;99.90
57088;DHT22;42965;52.846;6.614;2022-12-26T02:17:16;9.10;99.90
57088;DHT22;42965;52.846;6.614;2022-12-26T02:48:30;9.20;99.90
57088;DHT22;42965;52.846;6.614;2022-12-26T02:51:24;9.20;99.90
57088;DHT22;42965;52.846;6.614;2022-12-26T02:54:34;9.20;99.90
57088;DHT22;42965;52.846;6.614;2022-12-26T02:57:24;9.20;99.90
57088;DHT22;42965;52.846;6.614;2022-12-26T03:00:19;9.30;99.90
57088;DHT22;42965;52.846;6.614;2022-12-26T03:03:16;9.30;99.90
57088;DHT22;42965;52.846;6.614;2022-12-26T03:06:09;9.30;99.90
57088;DHT22;42965;52.846;6.614;2022-12-26T03:15:07;9.40;99.90
57088;DHT22;42965;52.846;6.614;2022-12-26T03:17:41;9.40;99.90
57088;DHT22;42965;52.846;6.614;2022-12-26T03:20:11;9.40;99.90
57088;DHT22;42965;52.846;6.614;2022-12-26T03:25:19;9.40;99.90
57088;DHT22;42965;52.846;6.614;2022-12-26T03:28:07;9.40;99.90
57088;DHT22;42965;52.846;6.614;2022-12-26T03:30:33;9.40;99.90
57088;DHT22;42965;52.846;6.614;2022-12-26T03:33:23;9.50;99.90
57088;DHT22;42965;52.846;6.614;2022-12-26T03:36:19;9.50;99.90
57088;DHT22;42965;52.846;6.614;2022-12-26T03:41:58;9.50;99.90
57088;DHT22;42965;52.846;6.614;2022-12-26T03:47:56;9.50;99.90
57088;DHT22;42965;52.846;6.614;2022-12-26T03:50:56;9.40;99.90
57088;DHT22;42965;52.846;6.614;2022-12-26T03:53:49;9.50;99.90
57088;DHT22;42965;52.846;6.614;2022-12-26T03:56:46;9.40;99.90
57088;DHT22;42965;52.846;6.614;2022-12-26T04:00:07;9.40;99.90
57088;DHT22;42965;52.846;6.614;2022-12-26T04:02:55;9.40;99.90
57088;DHT22;42965;52.846;6.614;2022-12-26T04:05:44;9.30;99.90
57088;DHT22;42965;52.846;6.614;2022-12-26T04:08:46;9.40;99.90
57088;DHT22;42965;52.846;6.614;2022-12-26T04:11:33;9.40;99.90
57088;DHT22;42965;52.846;6.614;2022-12-26T04:14:43;9.40;99.90
57088;DHT22;42965;52.846;6.614;2022-12-26T04:17:57;9.40;99.90
57088;DHT22;42965;52.846;6.614;2022-12-26T04:23:37;9.40;99.90
57088;DHT22;42965;52.846;6.614;2022-12-26T04:26:31;9.40;99.90
57088;DHT22;42965;52.846;6.614;2022-12-26T04:29:18;9.40;99.90
57088;DHT22;42965;52.846;6.614;2022-12-26T04:35:21;9.40;99.90
57088;DHT22;42965;52.846;6.614;2022-12-26T04:38:15;9.40;99.90
57088;DHT22;42965;52.846;6.614;2022-12-26T04:41:03;9.40;99.90
57088;DHT22;42965;52.846;6.614;2022-12-26T04:43:50;9.40;99.90
57088;DHT22;42965;52.846;6.614;2022-12-26T04:46:51;9.40;99.90
57088;DHT22;42965;52.846;6.614;2022-12-26T04:49:19;9.40;99.90
57088;DHT22;42965;52.846;6.614;2022-12-26T04:52:09;9.40;99.90
57088;DHT22;42965;52.846;6.614;2022-12-26T04:54:36;9.30;99.90
57088;DHT22;42965;52.846;6.614;2022-12-26T04:57:04;9.30;99.90
57088;DHT22;42965;52.846;6.614;2022-12-26T04:59:30;9.20;99.90
57088;DHT22;42965;52.846;6.614;2022-12-26T05:01:57;9.20;99.90
57088;DHT22;42965;52.846;6.614;2022-12-26T05:04:41;9.20;99.90
57088;DHT22;42965;52.846;6.614;2022-12-26T05:07:30;9.10;99.90
57088;DHT22;42965;52.846;6.614;2022-12-26T05:10:18;9.20;99.90
57088;DHT22;42965;52.846;6.614;2022-12-26T05:12:46;9.20;99.90
57088;DHT22;42965;52.846;6.614;2022-12-26T05:15:13;9.30;99.90
57088;DHT22;42965;52.846;6.614;2022-12-26T05:17:40;9.20;99.90
57088;DHT22;42965;52.846;6.614;2022-12-26T05:20:25;9.30;99.90
57088;DHT22;42965;52.846;6.614;2022-12-26T05:23:18;9.30;99.90
57088;DHT22;42965;52.846;6.614;2022-12-26T05:26:04;9.20;99.90
57088;DHT22;42965;52.846;6.614;2022-12-26T05:28:58;9.20;99.90
57088;DHT22;42965;52.846;6.614;2022-12-26T05:31:25;9.20;99.90
57088;DHT22;42965;52.846;6.614;2022-12-26T05:33:51;9.20;99.90
57088;DHT22;42965;52.846;6.614;2022-12-26T05:36:48;9.20;99.90
57088;DHT22;42965;52.846;6.614;2022-12-26T05:39:15;9.20;99.90
57088;DHT22;42965;52.846;6.614;2022-12-26T05:41:42;9.20;99.90
57088;DHT22;42965;52.846;6.614;2022-12-26T05:44:09;9.20;99.90
57088;DHT22;42965;52.846;6.614;2022-12-26T05:46:36;9.20;99.90
57088;DHT22;42965;52.846;6.614;2022-12-26T05:49:05;9.10;99.90
57088;DHT22;42965;52.846;6.614;2022-12-26T05:51:32;9.10;99.90
57088;DHT22;42965;52.846;6.614;2022-12-26T05:54:01;9.10;99.90
57088;DHT22;42965;52.846;6.614;2022-12-26T05:56:27;9.20;99.90
57088;DHT22;42965;52.846;6.614;2022-12-26T05:59:00;9.20;99.90
57088;DHT22;42965;52.846;6.614;2022-12-26T06:01:28;9.10;99.90
57088;DHT22;42965;52.846;6.614;2022-12-26T06:03:56;9.10;99.90
57088;DHT22;42965;52.846;6.614;2022-12-26T06:06:24;9.10;99.90
57088;DHT22;42965;52.846;6.614;2022-12-26T06:08:52;9.10;99.90
57088;DHT22;42965;52.846;6.614;2022-12-26T06:11:20;9.10;99.90
57088;DHT22;42965;52.846;6.614;2022-12-26T06:13:46;9.10;99.90
57088;DHT22;42965;52.846;6.614;2022-12-26T06:16:16;9.20;99.90
57088;DHT22;42965;52.846;6.614;2022-12-26T06:18:43;9.20;99.90
57088;DHT22;42965;52.846;6.614;2022-12-26T06:21:12;9.20;99.90
57088;DHT22;42965;52.846;6.614;2022-12-26T06:23:59;9.20;99.90
57088;DHT22;42965;52.846;6.614;2022-12-26T06:26:25;9.20;99.90
57088;DHT22;42965;52.846;6.614;2022-12-26T06:28:51;9.20;99.90
57088;DHT22;42965;52.846;6.614;2022-12-26T06:31:21;9.20;99.90
57088;DHT22;42965;52.846;6.614;2022-12-26T06:33:49;9.20;99.90
57088;DHT22;42965;52.846;6.614;2022-12-26T06:36:36;9.30;99.90
57088;DHT22;42965;52.846;6.614;2022-12-26T06:39:23;9.30;99.90
57088;DHT22;42965;52.846;6.614;2022-12-26T06:41:53;9.30;99.90
57088;DHT22;42965;52.846;6.614;2022-12-26T06:44:19;9.30;99.90
57088;DHT22;42965;52.846;6.614;2022-12-26T06:46:45;9.40;99.90
57088;DHT22;42965;52.846;6.614;2022-12-26T06:49:12;9.40;99.90
57088;DHT22;42965;52.846;6.614;2022-12-26T06:51:38;9.40;99.90
57088;DHT22;42965;52.846;6.614;2022-12-26T06:54:06;9.40;99.90
57088;DHT22;42965;52.846;6.614;2022-12-26T06:56:33;9.40;99.90
57088;DHT22;42965;52.846;6.614;2022-12-26T06:59:03;9.40;99.90
57088;DHT22;42965;52.846;6.614;2022-12-26T07:01:31;9.40;99.90
57088;DHT22;42965;52.846;6.614;2022-12-26T07:03:58;9.40;99.90
57088;DHT22;42965;52.846;6.614;2022-12-26T07:06:27;9.40;99.90
57088;DHT22;42965;52.846;6.614;2022-12-26T07:09:07;9.40;99.90
57088;DHT22;42965;52.846;6.614;2022-12-26T07:11:38;9.30;99.90
57088;DHT22;42965;52.846;6.614;2022-12-26T07:14:05;9.20;99.90
57088;DHT22;42965;52.846;6.614;2022-12-26T07:16:34;9.20;99.90
57088;DHT22;42965;52.846;6.614;2022-12-26T07:19:01;9.20;99.90
57088;DHT22;42965;52.846;6.614;2022-12-26T07:21:28;9.20;99.90
57088;DHT22;42965;52.846;6.614;2022-12-26T07:23:54;9.10;99.90
57088;DHT22;42965;52.846;6.614;2022-12-26T07:26:22;9.10;99.90
57088;DHT22;42965;52.846;6.614;2022-12-26T07:28:52;9.10;99.90
57088;DHT22;42965;52.846;6.614;2022-12-26T07:31:19;9.20;99.90
57088;DHT22;42965;52.846;6.614;2022-12-26T07:33:50;9.10;99.90
57088;DHT22;42965;52.846;6.614;2022-12-26T07:36:18;9.10;99.90
57088;DHT22;42965;52.846;6.614;2022-12-26T07:38:45;9.00;99.90
57088;DHT22;42965;52.846;6.614;2022-12-26T07:41:12;9.00;99.90
57088;DHT22;42965;52.846;6.614;2022-12-26T07:43:57;9.00;99.90
57088;DHT22;42965;52.846;6.614;2022-12-26T07:46:23;9.00;99.90
57088;DHT22;42965;52.846;6.614;2022-12-26T07:48:54;9.00;99.90
57088;DHT22;42965;52.846;6.614;2022-12-26T07:51:23;9.00;99.90
57088;DHT22;42965;52.846;6.614;2022-12-26T07:53:49;9.00;99.90
57088;DHT22;42965;52.846;6.614;2022-12-26T07:56:16;9.10;99.90
57088;DHT22;42965;52.846;6.614;2022-12-26T07:58:42;9.10;99.90
57088;DHT22;42965;52.846;6.614;2022-12-26T08:01:10;9.10;99.90
57088;DHT22;42965;52.846;6.614;2022-12-26T08:03:36;9.10;99.90
57088;DHT22;42965;52.846;6.614;2022-12-26T08:06:03;9.10;99.90
57088;DHT22;42965;52.846;6.614;2022-12-26T08:08:29;9.10;99.90
57088;DHT22;42965;52.846;6.614;2022-12-26T08:11:19;9.10;99.90
57088;DHT22;42965;52.846;6.614;2022-12-26T08:14:05;9.10;99.90
57088;DHT22;42965;52.846;6.614;2022-12-26T08:16:32;9.20;99.90
57088;DHT22;42965;52.846;6.614;2022-12-26T08:19:00;9.10;99.90
57088;DHT22;42965;52.846;6.614;2022-12-26T08:21:48;9.20;99.90
57088;DHT22;42965;52.846;6.614;2022-12-26T08:24:34;9.20;99.90
57088;DHT22;42965;52.846;6.614;2022-12-26T08:27:02;9.20;99.90
57088;DHT22;42965;52.846;6.614;2022-12-26T08:29:32;9.20;99.90
57088;DHT22;42965;52.846;6.614;2022-12-26T08:31:58;9.20;99.90
57088;DHT22;42965;52.846;6.614;2022-12-26T08:34:31;9.30;99.90
57088;DHT22;42965;52.846;6.614;2022-12-26T08:36:58;9.30;99.90
57088;DHT22;42965;52.846;6.614;2022-12-26T08:39:24;9.40;99.90
57088;DHT22;42965;52.846;6.614;2022-12-26T08:41:51;9.40;99.90
57088;DHT22;42965;52.846;6.614;2022-12-26T08:44:17;9.50;99.90
57088;DHT22;42965;52.846;6.614;2022-12-26T08:46:44;9.50;99.90
57088;DHT22;42965;52.846;6.614;2022-12-26T08:49:11;9.60;99.90
57088;DHT22;42965;52.846;6.614;2022-12-26T08:51:38;9.60;99.90
57088;DHT22;42965;52.846;6.614;2022-12-26T08:54:05;9.70;99.90
57088;DHT22;42965;52.846;6.614;2022-12-26T08:56:31;9.70;99.90
57088;DHT22;42965;52.846;6.614;2022-12-26T08:58:57;9.70;99.90
57088;DHT22;42965;52.846;6.614;2022-12-26T09:01:27;9.80;99.90
57088;DHT22;42965;52.846;6.614;2022-12-26T09:03:57;9.90;99.90
57088;DHT22;42965;52.846;6.614;2022-12-26T09:06:24;9.90;99.90
57088;DHT22;42965;52.846;6.614;2022-12-26T09:08:52;10.00;99.90
57088;DHT22;42965;52.846;6.614;2022-12-26T09:11:21;9.90;99.90
57088;DHT22;42965;52.846;6.614;2022-12-26T09:13:48;9.90;99.90
57088;DHT22;42965;52.846;6.614;2022-12-26T09:16:24;9.90;99.90
57088;DHT22;42965;52.846;6.614;2022-12-26T09:18:57;9.90;99.90
57088;DHT22;42965;52.846;6.614;2022-12-26T09:21:24;9.90;99.90
57088;DHT22;42965;52.846;6.614;2022-12-26T09:23:56;9.80;99.90
57088;DHT22;42965;52.846;6.614;2022-12-26T09:26:27;9.80;99.90
57088;DHT22;42965;52.846;6.614;2022-12-26T09:28:55;9.70;99.90
57088;DHT22;42965;52.846;6.614;2022-12-26T09:31:27;9.80;99.90
57088;DHT22;42965;52.846;6.614;2022-12-26T09:33:53;9.80;99.90
57088;DHT22;42965;52.846;6.614;2022-12-26T09:36:22;9.70;99.90
57088;DHT22;42965;52.846;6.614;2022-12-26T09:38:50;9.70;99.90
57088;DHT22;42965;52.846;6.614;2022-12-26T09:43:58;9.70;99.90
57088;DHT22;42965;52.846;6.614;2022-12-26T09:49:18;9.70;99.90
57088;DHT22;42965;52.846;6.614;2022-12-26T09:51:51;9.60;99.90
57088;DHT22;42965;52.846;6.614;2022-12-26T09:54:41;9.70;99.90
57088;DHT22;42965;52.846;6.614;2022-12-26T09:57:19;9.60;99.90
57088;DHT22;42965;52.846;6.614;2022-12-26T09:59:55;9.70;99.90
57088;DHT22;42965;52.846;6.614;2022-12-26T10:02:23;9.70;99.90
57088;DHT22;42965;52.846;6.614;2022-12-26T10:04:51;9.70;99.90
57088;DHT22;42965;52.846;6.614;2022-12-26T10:07:43;9.70;99.90
57088;DHT22;42965;52.846;6.614;2022-12-26T10:10:57;9.70;99.90
57088;DHT22;42965;52.846;6.614;2022-12-26T10:15:46;9.30;99.90
57088;DHT22;42965;52.846;6.614;2022-12-26T10:18:32;9.10;99.90
57088;DHT22;42965;52.846;6.614;2022-12-26T10:26:34;8.50;99.90
57088;DHT22;42965;52.846;6.614;2022-12-26T10:31:51;8.50;99.90
57088;DHT22;42965;52.846;6.614;2022-12-26T10:34:24;8.60;99.90
57088;DHT22;42965;52.846;6.614;2022-12-26T10:39:59;8.60;99.90
57088;DHT22;42965;52.846;6.614;2022-12-26T10:42:38;8.60;99.90
57088;DHT22;42965;52.846;6.614;2022-12-26T10:45:17;8.60;99.90
57088;DHT22;42965;52.846;6.614;2022-12-26T10:47:52;8.60;99.90
57088;DHT22;42965;52.846;6.614;2022-12-26T10:50:29;8.60;99.90
57088;DHT22;42965;52.846;6.614;2022-12-26T10:52:57;8.60;99.90
57088;DHT22;42965;52.846;6.614;2022-12-26T10:55:31;8.60;99.90
57088;DHT22;42965;52.846;6.614;2022-12-26T10:58:20;8.60;99.90
57088;DHT22;42965;52.846;6.614;2022-12-26T11:00:47;8.50;99.90
57088;DHT22;42965;52.846;6.614;2022-12-26T11:03:16;8.50;99.90
57088;DHT22;42965;52.846;6.614;2022-12-26T11:11:09;8.30;99.90
57088;DHT22;42965;52.846;6.614;2022-12-26T11:13:39;8.30;99.90
57088;DHT22;42965;52.846;6.614;2022-12-26T11:16:07;8.30;99.90
57088;DHT22;42965;52.846;6.614;2022-12-26T11:18:45;8.20;99.90
57088;DHT22;42965;52.846;6.614;2022-12-26T11:21:22;8.10;99.90
57088;DHT22;42965;52.846;6.614;2022-12-26T11:23:52;8.10;99.90
57088;DHT22;42965;52.846;6.614;2022-12-26T11:26:20;8.20;99.90
57088;DHT22;42965;52.846;6.614;2022-12-26T11:28:46;8.20;99.90
57088;DHT22;42965;52.846;6.614;2022-12-26T11:31:23;8.10;99.90
57088;DHT22;42965;52.846;6.614;2022-12-26T11:33:53;8.20;99.90
57088;DHT22;42965;52.846;6.614;2022-12-26T11:36:21;8.20;99.90
57088;DHT22;42965;52.846;6.614;2022-12-26T11:38:54;8.30;99.90
57088;DHT22;42965;52.846;6.614;2022-12-26T11:44:02;8.30;99.90
57088;DHT22;42965;52.846;6.614;2022-12-26T11:46:41;8.10;99.90
57088;DHT22;42965;52.846;6.614;2022-12-26T11:49:24;8.10;99.90
57088;DHT22;42965;52.846;6.614;2022-12-26T11:51:52;8.20;99.90
57088;DHT22;42965;52.846;6.614;2022-12-26T11:54:24;8.20;99.90
57088;DHT22;42965;52.846;6.614;2022-12-26T11:59:41;8.20;99.90
57088;DHT22;42965;52.846;6.614;2022-12-26T12:02:31;8.20;99.90
57088;DHT22;42965;52.846;6.614;2022-12-26T12:05:03;8.20;99.90
57088;DHT22;42965;52.846;6.614;2022-12-26T12:21:31;8.90;99.90
57088;DHT22;42965;52.846;6.614;2022-12-26T12:24:32;9.10;99.90
57088;DHT22;42965;52.846;6.614;2022-12-26T12:27:41;9.60;99.90
57088;DHT22;42965;52.846;6.614;2022-12-26T12:30:19;9.80;99.90
57088;DHT22;42965;52.846;6.614;2022-12-26T12:33:00;10.10;99.90
57088;DHT22;42965;52.846;6.614;2022-12-26T12:49:22;9.20;99.90
57088;DHT22;42965;52.846;6.614;2022-12-26T12:52:04;9.10;99.90
57088;DHT22;42965;52.846;6.614;2022-12-26T12:54:58;9.30;99.90
57088;DHT22;42965;52.846;6.614;2022-12-26T12:57:29;9.50;99.90
57088;DHT22;42965;52.846;6.614;2022-12-26T13:00:21;9.50;99.90
57088;DHT22;42965;52.846;6.614;2022-12-26T13:02:59;9.80;99.90
57088;DHT22;42965;52.846;6.614;2022-12-26T13:06:15;9.70;99.90
57088;DHT22;42965;52.846;6.614;2022-12-26T13:08:44;10.10;99.90
57088;DHT22;42965;52.846;6.614;2022-12-26T13:11:22;10.40;99.90
57088;DHT22;42965;52.846;6.614;2022-12-26T13:13:55;10.40;99.90
57088;DHT22;42965;52.846;6.614;2022-12-26T13:16:31;10.20;99.90
57088;DHT22;42965;52.846;6.614;2022-12-26T13:19:05;10.30;99.90
57088;DHT22;42965;52.846;6.614;2022-12-26T13:21:36;10.20;99.90
57088;DHT22;42965;52.846;6.614;2022-12-26T13:24:40;10.40;99.90
57088;DHT22;42965;52.846;6.614;2022-12-26T13:27:05;10.50;99.90
57088;DHT22;42965;52.846;6.614;2022-12-26T13:29:39;10.70;99.90
57088;DHT22;42965;52.846;6.614;2022-12-26T13:32:25;10.50;99.90
57088;DHT22;42965;52.846;6.614;2022-12-26T13:34:55;10.90;99.90
57088;DHT22;42965;52.846;6.614;2022-12-26T13:42:48;11.00;99.90
57088;DHT22;42965;52.846;6.614;2022-12-26T13:50:49;11.10;99.90
57088;DHT22;42965;52.846;6.614;2022-12-26T13:53:29;11.10;99.90
57088;DHT22;42965;52.846;6.614;2022-12-26T13:56:01;11.30;99.90
57088;DHT22;42965;52.846;6.614;2022-12-26T13:58:43;11.20;99.90
57088;DHT22;42965;52.846;6.614;2022-12-26T14:04:56;11.40;99.90
57088;DHT22;42965;52.846;6.614;2022-12-26T14:07:45;11.20;99.90
57088;DHT22;42965;52.846;6.614;2022-12-26T14:10:39;10.90;99.90
57088;DHT22;42965;52.846;6.614;2022-12-26T14:22:14;10.50;99.90
57088;DHT22;42965;52.846;6.614;2022-12-26T14:25:11;10.20;99.90
57088;DHT22;42965;52.846;6.614;2022-12-26T14:36:56;8.80;99.90
57088;DHT22;42965;52.846;6.614;2022-12-26T14:42:24;8.40;99.90
57088;DHT22;42965;52.846;6.614;2022-12-26T14:47:59;8.20;99.90
57088;DHT22;42965;52.846;6.614;2022-12-26T14:59:18;7.70;99.90
57088;DHT22;42965;52.846;6.614;2022-12-26T15:15:30;7.10;99.90
57088;DHT22;42965;52.846;6.614;2022-12-26T15:29:34;6.90;99.90
57088;DHT22;42965;52.846;6.614;2022-12-26T15:32:08;6.80;99.90
57088;DHT22;42965;52.846;6.614;2022-12-26T15:34:42;6.80;99.90
57088;DHT22;42965;52.846;6.614;2022-12-26T15:40:29;6.60;99.90
57088;DHT22;42965;52.846;6.614;2022-12-26T15:45:51;6.50;99.90
57088;DHT22;42965;52.846;6.614;2022-12-26T16:00:04;6.10;99.90
57088;DHT22;42965;52.846;6.614;2022-12-26T16:05:05;6.10;99.90
57088;DHT22;42965;52.846;6.614;2022-12-26T16:07:41;5.90;99.90
57088;DHT22;42965;52.846;6.614;2022-12-26T16:15:50;5.70;99.90
57088;DHT22;42965;52.846;6.614;2022-12-26T16:18:20;5.70;99.90
57088;DHT22;42965;52.846;6.614;2022-12-26T16:20:48;5.70;99.90
57088;DHT22;42965;52.846;6.614;2022-12-26T16:23:37;5.60;99.90
57088;DHT22;42965;52.846;6.614;2022-12-26T16:26:05;5.50;99.90
57088;DHT22;42965;52.846;6.614;2022-12-26T16:28:39;5.50;99.90
57088;DHT22;42965;52.846;6.614;2022-12-26T16:31:06;5.40;99.90
57088;DHT22;42965;52.846;6.614;2022-12-26T16:33:42;5.30;99.90
57088;DHT22;42965;52.846;6.614;2022-12-26T16:36:11;5.30;99.90
57088;DHT22;42965;52.846;6.614;2022-12-26T16:38:39;5.30;99.90
57088;DHT22;42965;52.846;6.614;2022-12-26T16:41:28;5.20;99.90
57088;DHT22;42965;52.846;6.614;2022-12-26T16:43:56;5.20;99.90
57088;DHT22;42965;52.846;6.614;2022-12-26T16:46:26;5.10;99.90
57088;DHT22;42965;52.846;6.614;2022-12-26T16:48:59;5.10;99.90
57088;DHT22;42965;52.846;6.614;2022-12-26T16:51:46;5.10;99.90
57088;DHT22;42965;52.846;6.614;2022-12-26T16:59:35;4.90;99.90
57088;DHT22;42965;52.846;6.614;2022-12-26T17:02:02;4.90;99.90
57088;DHT22;42965;52.846;6.614;2022-12-26T17:04:29;4.80;99.90
57088;DHT22;42965;52.846;6.614;2022-12-26T17:06:59;4.80;99.90
57088;DHT22;42965;52.846;6.614;2022-12-26T17:09:28;4.70;99.90
57088;DHT22;42965;52.846;6.614;2022-12-26T17:12:05;4.70;99.90
57088;DHT22;42965;52.846;6.614;2022-12-26T17:14:38;4.60;99.90
57088;DHT22;42965;52.846;6.614;2022-12-26T17:19:47;4.50;99.90
57088;DHT22;42965;52.846;6.614;2022-12-26T17:24:50;4.50;99.90
57088;DHT22;42965;52.846;6.614;2022-12-26T17:27:23;4.50;99.90
57088;DHT22;42965;52.846;6.614;2022-12-26T17:32:39;4.50;99.90
57088;DHT22;42965;52.846;6.614;2022-12-26T17:35:17;4.50;99.90
57088;DHT22;42965;52.846;6.614;2022-12-26T17:37:45;4.50;99.90
57088;DHT22;42965;52.846;6.614;2022-12-26T17:42:50;4.40;99.90
57088;DHT22;42965;52.846;6.614;2022-12-26T17:45:22;4.50;99.90
57088;DHT22;42965;52.846;6.614;2022-12-26T17:47:55;4.50;99.90
57088;DHT22;42965;52.846;6.614;2022-12-26T17:50:23;4.40;99.90
57088;DHT22;42965;52.846;6.614;2022-12-26T17:52:50;4.40;99.90
57088;DHT22;42965;52.846;6.614;2022-12-26T17:55:19;4.30;99.90
57088;DHT22;42965;52.846;6.614;2022-12-26T17:57:50;4.30;99.90
57088;DHT22;42965;52.846;6.614;2022-12-26T18:00:23;4.30;99.90
57088;DHT22;42965;52.846;6.614;2022-12-26T18:02:50;4.20;99.90
57088;DHT22;42965;52.846;6.614;2022-12-26T18:05:18;4.20;99.90
57088;DHT22;42965;52.846;6.614;2022-12-26T18:07:45;4.20;99.90
57088;DHT22;42965;52.846;6.614;2022-12-26T18:10:21;4.20;99.90
57088;DHT22;42965;52.846;6.614;2022-12-26T18:12:49;4.10;99.90
57088;DHT22;42965;52.846;6.614;2022-12-26T18:15:16;4.10;99.90
57088;DHT22;42965;52.846;6.614;2022-12-26T18:17:43;4.10;99.90
57088;DHT22;42965;52.846;6.614;2022-12-26T18:20:25;4.10;99.90
57088;DHT22;42965;52.846;6.614;2022-12-26T18:22:52;4.00;99.90
57088;DHT22;42965;52.846;6.614;2022-12-26T18:25:21;4.00;99.90
57088;DHT22;42965;52.846;6.614;2022-12-26T18:27:48;4.00;99.90
57088;DHT22;42965;52.846;6.614;2022-12-26T18:30:20;4.00;99.90
57088;DHT22;42965;52.846;6.614;2022-12-26T18:32:48;4.00;99.90
57088;DHT22;42965;52.846;6.614;2022-12-26T18:35:15;4.00;99.90
57088;DHT22;42965;52.846;6.614;2022-12-26T18:37:48;4.00;99.90
57088;DHT22;42965;52.846;6.614;2022-12-26T18:40:32;4.00;99.90
57088;DHT22;42965;52.846;6.614;2022-12-26T18:42:59;4.10;99.90
57088;DHT22;42965;52.846;6.614;2022-12-26T18:45:25;4.10;99.90
57088;DHT22;42965;52.846;6.614;2022-12-26T18:47:52;4.10;99.90
57088;DHT22;42965;52.846;6.614;2022-12-26T18:50:19;4.10;99.90
57088;DHT22;42965;52.846;6.614;2022-12-26T18:52:45;4.10;99.90
57088;DHT22;42965;52.846;6.614;2022-12-26T18:55:11;4.10;99.90
57088;DHT22;42965;52.846;6.614;2022-12-26T18:57:38;4.10;99.90
57088;DHT22;42965;52.846;6.614;2022-12-26T19:00:06;4.10;99.90
57088;DHT22;42965;52.846;6.614;2022-12-26T19:02:33;4.10;99.90
57088;DHT22;42965;52.846;6.614;2022-12-26T19:05:00;4.10;99.90
57088;DHT22;42965;52.846;6.614;2022-12-26T19:07:26;4.10;99.90
57088;DHT22;42965;52.846;6.614;2022-12-26T19:09:52;4.10;99.90
57088;DHT22;42965;52.846;6.614;2022-12-26T19:12:21;4.10;99.90
57088;DHT22;42965;52.846;6.614;2022-12-26T19:14:49;4.00;99.90
57088;DHT22;42965;52.846;6.614;2022-12-26T19:17:15;4.00;99.90
57088;DHT22;42965;52.846;6.614;2022-12-26T19:19:42;4.00;99.90
57088;DHT22;42965;52.846;6.614;2022-12-26T19:22:08;3.90;99.90
57088;DHT22;42965;52.846;6.614;2022-12-26T19:24:36;4.00;99.90
57088;DHT22;42965;52.846;6.614;2022-12-26T19:27:03;4.00;99.90
57088;DHT22;42965;52.846;6.614;2022-12-26T19:29:31;4.10;99.90
57088;DHT22;42965;52.846;6.614;2022-12-26T19:31:58;4.10;99.90
57088;DHT22;42965;52.846;6.614;2022-12-26T19:34:25;4.00;99.90
57088;DHT22;42965;52.846;6.614;2022-12-26T19:36:51;4.10;99.90
57088;DHT22;42965;52.846;6.614;2022-12-26T19:39:17;4.10;99.90
57088;DHT22;42965;52.846;6.614;2022-12-26T19:41:43;4.10;99.90
57088;DHT22;42965;52.846;6.614;2022-12-26T19:44:10;4.10;99.90
57088;DHT22;42965;52.846;6.614;2022-12-26T19:46:36;4.00;99.90
57088;DHT22;42965;52.846;6.614;2022-12-26T19:49:03;4.00;99.90
57088;DHT22;42965;52.846;6.614;2022-12-26T19:51:29;4.00;99.90
57088;DHT22;42965;52.846;6.614;2022-12-26T19:53:55;4.10;99.90
57088;DHT22;42965;52.846;6.614;2022-12-26T19:56:24;4.00;99.90
57088;DHT22;42965;52.846;6.614;2022-12-26T19:58:51;4.00;99.90
57088;DHT22;42965;52.846;6.614;2022-12-26T20:01:21;4.00;99.90
57088;DHT22;42965;52.846;6.614;2022-12-26T20:03:48;4.10;99.90
57088;DHT22;42965;52.846;6.614;2022-12-26T20:06:17;4.10;99.90
57088;DHT22;42965;52.846;6.614;2022-12-26T20:08:45;4.10;99.90